sensor_id;sensor_type;location;lat;lon;timestamp;P1;durP1;ratioP1;P2;durP2;ratioP2
33864;SDS011;20159;51.072;13.526;2023-04-24T00:02:02;9.18;;;5.40;;
33864;SDS011;20159;51.072;13.526;2023-04-24T00:04:28;5.25;;;4.75;;
33864;SDS011;20159;51.072;13.526;2023-04-24T00:06:55;5.10;;;4.60;;
33864;SDS011;20159;51.072;13.526;2023-04-24T00:09:21;6.38;;;5.03;;
33864;SDS011;20159;51.072;13.526;2023-04-24T00:11:47;6.70;;;4.57;;
33864;SDS011;20159;51.072;13.526;2023-04-24T00:14:13;6.07;;;4.75;;
33864;SDS011;20159;51.072;13.526;2023-04-24T00:16:38;5.28;;;4.72;;
33864;SDS011;20159;51.072;13.526;2023-04-24T00:19:04;5.20;;;4.70;;
33864;SDS011;20159;51.072;13.526;2023-04-24T00:21:31;4.88;;;4.38;;
33864;SDS011;20159;51.072;13.526;2023-04-24T00:23:57;6.40;;;4.88;;
33864;SDS011;20159;51.072;13.526;2023-04-24T00:26:23;6.20;;;4.85;;
33864;SDS011;20159;51.072;13.526;2023-04-24T00:28:49;6.57;;;5.03;;
33864;SDS011;20159;51.072;13.526;2023-04-24T00:31:14;6.70;;;5.40;;
33864;SDS011;20159;51.072;13.526;2023-04-24T00:33:40;5.82;;;5.28;;
33864;SDS011;20159;51.072;13.526;2023-04-24T00:36:05;5.50;;;5.00;;
33864;SDS011;20159;51.072;13.526;2023-04-24T00:38:31;5.30;;;4.78;;
33864;SDS011;20159;51.072;13.526;2023-04-24T00:40:57;5.82;;;5.32;;
33864;SDS011;20159;51.072;13.526;2023-04-24T00:43:22;5.55;;;5.05;;
33864;SDS011;20159;51.072;13.526;2023-04-24T00:45:48;6.47;;;5.68;;
33864;SDS011;20159;51.072;13.526;2023-04-24T00:48:14;6.00;;;5.40;;
33864;SDS011;20159;51.072;13.526;2023-04-24T00:50:39;5.75;;;4.97;;
33864;SDS011;20159;51.072;13.526;2023-04-24T00:53:06;5.43;;;4.93;;
33864;SDS011;20159;51.072;13.526;2023-04-24T00:55:32;5.88;;;5.28;;
33864;SDS011;20159;51.072;13.526;2023-04-24T00:57:57;5.70;;;5.18;;
33864;SDS011;20159;51.072;13.526;2023-04-24T01:00:23;6.47;;;5.45;;
33864;SDS011;20159;51.072;13.526;2023-04-24T01:02:50;5.75;;;5.25;;
33864;SDS011;20159;51.072;13.526;2023-04-24T01:05:17;5.75;;;5.10;;
33864;SDS011;20159;51.072;13.526;2023-04-24T01:07:44;5.82;;;5.18;;
33864;SDS011;20159;51.072;13.526;2023-04-24T01:10:13;6.10;;;5.00;;
33864;SDS011;20159;51.072;13.526;2023-04-24T01:12:39;5.07;;;4.57;;
33864;SDS011;20159;51.072;13.526;2023-04-24T01:15:05;5.13;;;4.63;;
33864;SDS011;20159;51.072;13.526;2023-04-24T01:17:31;5.10;;;4.55;;
33864;SDS011;20159;51.072;13.526;2023-04-24T01:19:57;4.18;;;3.72;;
33864;SDS011;20159;51.072;13.526;2023-04-24T01:22:24;3.95;;;3.58;;
33864;SDS011;20159;51.072;13.526;2023-04-24T01:24:50;3.83;;;3.30;;
33864;SDS011;20159;51.072;13.526;2023-04-24T01:27:16;3.40;;;3.10;;
33864;SDS011;20159;51.072;13.526;2023-04-24T01:29:42;4.38;;;3.08;;
33864;SDS011;20159;51.072;13.526;2023-04-24T01:32:08;3.50;;;2.70;;
33864;SDS011;20159;51.072;13.526;2023-04-24T01:34:33;3.10;;;2.80;;
33864;SDS011;20159;51.072;13.526;2023-04-24T01:36:59;4.20;;;2.63;;
33864;SDS011;20159;51.072;13.526;2023-04-24T01:39:25;2.50;;;2.10;;
33864;SDS011;20159;51.072;13.526;2023-04-24T01:41:53;3.08;;;2.20;;
33864;SDS011;20159;51.072;13.526;2023-04-24T01:44:19;2.30;;;2.10;;
33864;SDS011;20159;51.072;13.526;2023-04-24T01:46:45;2.63;;;2.25;;
33864;SDS011;20159;51.072;13.526;2023-04-24T01:49:11;3.60;;;1.92;;
33864;SDS011;20159;51.072;13.526;2023-04-24T01:51:36;4.05;;;2.03;;
33864;SDS011;20159;51.072;13.526;2023-04-24T01:54:02;2.55;;;1.73;;
33864;SDS011;20159;51.072;13.526;2023-04-24T01:56:31;1.75;;;1.58;;
33864;SDS011;20159;51.072;13.526;2023-04-24T01:58:58;3.10;;;1.63;;
33864;SDS011;20159;51.072;13.526;2023-04-24T02:01:26;2.22;;;1.58;;
33864;SDS011;20159;51.072;13.526;2023-04-24T02:03:52;2.08;;;1.60;;
33864;SDS011;20159;51.072;13.526;2023-04-24T02:06:17;2.13;;;1.42;;
33864;SDS011;20159;51.072;13.526;2023-04-24T02:08:42;1.92;;;1.50;;
33864;SDS011;20159;51.072;13.526;2023-04-24T02:11:09;1.35;;;1.20;;
33864;SDS011;20159;51.072;13.526;2023-04-24T02:13:34;3.35;;;1.40;;
33864;SDS011;20159;51.072;13.526;2023-04-24T02:16:00;2.33;;;1.35;;
33864;SDS011;20159;51.072;13.526;2023-04-24T02:18:26;1.73;;;1.30;;
33864;SDS011;20159;51.072;13.526;2023-04-24T02:20:51;2.60;;;1.30;;
33864;SDS011;20159;51.072;13.526;2023-04-24T02:23:17;1.70;;;1.30;;
33864;SDS011;20159;51.072;13.526;2023-04-24T02:25:43;1.63;;;1.33;;
33864;SDS011;20159;51.072;13.526;2023-04-24T02:28:08;1.60;;;1.30;;
33864;SDS011;20159;51.072;13.526;2023-04-24T02:30:34;1.80;;;1.20;;
33864;SDS011;20159;51.072;13.526;2023-04-24T02:32:59;2.60;;;1.23;;
33864;SDS011;20159;51.072;13.526;2023-04-24T02:35:25;1.80;;;1.30;;
33864;SDS011;20159;51.072;13.526;2023-04-24T02:37:50;1.73;;;1.40;;
33864;SDS011;20159;51.072;13.526;2023-04-24T02:40:16;1.40;;;1.30;;
33864;SDS011;20159;51.072;13.526;2023-04-24T02:42:42;1.98;;;1.50;;
33864;SDS011;20159;51.072;13.526;2023-04-24T02:45:07;1.52;;;1.40;;
33864;SDS011;20159;51.072;13.526;2023-04-24T02:47:33;1.65;;;1.45;;
33864;SDS011;20159;51.072;13.526;2023-04-24T02:49:58;2.08;;;1.50;;
33864;SDS011;20159;51.072;13.526;2023-04-24T02:52:24;2.75;;;1.35;;
33864;SDS011;20159;51.072;13.526;2023-04-24T02:54:49;1.67;;;1.30;;
33864;SDS011;20159;51.072;13.526;2023-04-24T02:57:15;1.52;;;1.30;;
33864;SDS011;20159;51.072;13.526;2023-04-24T02:59:40;2.42;;;1.40;;
33864;SDS011;20159;51.072;13.526;2023-04-24T03:02:06;2.42;;;1.48;;
33864;SDS011;20159;51.072;13.526;2023-04-24T03:04:31;1.73;;;1.52;;
33864;SDS011;20159;51.072;13.526;2023-04-24T03:06:57;1.60;;;1.27;;
33864;SDS011;20159;51.072;13.526;2023-04-24T03:09:23;1.80;;;1.50;;
33864;SDS011;20159;51.072;13.526;2023-04-24T03:11:49;1.40;;;1.27;;
33864;SDS011;20159;51.072;13.526;2023-04-24T03:14:15;2.17;;;1.42;;
33864;SDS011;20159;51.072;13.526;2023-04-24T03:16:41;1.85;;;1.20;;
33864;SDS011;20159;51.072;13.526;2023-04-24T03:19:06;2.00;;;1.38;;
33864;SDS011;20159;51.072;13.526;2023-04-24T03:21:32;2.15;;;1.17;;
33864;SDS011;20159;51.072;13.526;2023-04-24T03:23:58;2.72;;;1.67;;
33864;SDS011;20159;51.072;13.526;2023-04-24T03:26:23;1.58;;;1.08;;
33864;SDS011;20159;51.072;13.526;2023-04-24T03:28:49;1.70;;;1.30;;
33864;SDS011;20159;51.072;13.526;2023-04-24T03:31:14;1.23;;;1.02;;
33864;SDS011;20159;51.072;13.526;2023-04-24T03:33:40;1.40;;;1.25;;
33864;SDS011;20159;51.072;13.526;2023-04-24T03:36:06;1.45;;;1.10;;
33864;SDS011;20159;51.072;13.526;2023-04-24T03:38:31;1.75;;;1.20;;
33864;SDS011;20159;51.072;13.526;2023-04-24T03:40:57;2.28;;;1.23;;
33864;SDS011;20159;51.072;13.526;2023-04-24T03:43:22;1.75;;;1.30;;
33864;SDS011;20159;51.072;13.526;2023-04-24T03:45:48;2.55;;;1.23;;
33864;SDS011;20159;51.072;13.526;2023-04-24T03:48:13;3.33;;;1.15;;
33864;SDS011;20159;51.072;13.526;2023-04-24T03:50:39;1.98;;;1.08;;
33864;SDS011;20159;51.072;13.526;2023-04-24T03:53:04;2.42;;;1.30;;
33864;SDS011;20159;51.072;13.526;2023-04-24T03:55:30;2.33;;;1.17;;
33864;SDS011;20159;51.072;13.526;2023-04-24T03:57:55;2.20;;;1.38;;
33864;SDS011;20159;51.072;13.526;2023-04-24T04:00:21;2.25;;;1.52;;
33864;SDS011;20159;51.072;13.526;2023-04-24T04:02:46;1.73;;;1.10;;
33864;SDS011;20159;51.072;13.526;2023-04-24T04:05:12;1.95;;;1.35;;
33864;SDS011;20159;51.072;13.526;2023-04-24T04:07:37;1.45;;;1.30;;
33864;SDS011;20159;51.072;13.526;2023-04-24T04:10:03;1.42;;;1.10;;
33864;SDS011;20159;51.072;13.526;2023-04-24T04:12:29;1.63;;;1.30;;
33864;SDS011;20159;51.072;13.526;2023-04-24T04:14:55;1.42;;;1.13;;
33864;SDS011;20159;51.072;13.526;2023-04-24T04:17:20;1.58;;;1.27;;
33864;SDS011;20159;51.072;13.526;2023-04-24T04:19:46;2.10;;;1.40;;
33864;SDS011;20159;51.072;13.526;2023-04-24T04:22:11;3.10;;;1.45;;
33864;SDS011;20159;51.072;13.526;2023-04-24T04:24:36;1.25;;;1.10;;
33864;SDS011;20159;51.072;13.526;2023-04-24T04:27:03;1.90;;;1.20;;
33864;SDS011;20159;51.072;13.526;2023-04-24T04:29:30;1.60;;;1.05;;
33864;SDS011;20159;51.072;13.526;2023-04-24T04:31:56;1.90;;;1.20;;
33864;SDS011;20159;51.072;13.526;2023-04-24T04:34:22;4.00;;;1.10;;
33864;SDS011;20159;51.072;13.526;2023-04-24T04:36:48;1.60;;;0.95;;
33864;SDS011;20159;51.072;13.526;2023-04-24T04:39:13;1.92;;;1.23;;
33864;SDS011;20159;51.072;13.526;2023-04-24T04:41:41;2.15;;;1.20;;
33864;SDS011;20159;51.072;13.526;2023-04-24T04:44:07;1.48;;;1.02;;
33864;SDS011;20159;51.072;13.526;2023-04-24T04:46:33;1.55;;;1.10;;
33864;SDS011;20159;51.072;13.526;2023-04-24T04:49:00;1.73;;;1.10;;
33864;SDS011;20159;51.072;13.526;2023-04-24T04:51:26;1.90;;;0.98;;
33864;SDS011;20159;51.072;13.526;2023-04-24T04:53:52;1.42;;;1.08;;
33864;SDS011;20159;51.072;13.526;2023-04-24T04:56:25;1.83;;;1.17;;
33864;SDS011;20159;51.072;13.526;2023-04-24T04:58:50;1.98;;;1.00;;
33864;SDS011;20159;51.072;13.526;2023-04-24T05:01:16;3.22;;;1.23;;
33864;SDS011;20159;51.072;13.526;2023-04-24T05:03:42;2.28;;;1.23;;
33864;SDS011;20159;51.072;13.526;2023-04-24T05:06:07;2.40;;;1.30;;
33864;SDS011;20159;51.072;13.526;2023-04-24T05:08:33;1.70;;;1.02;;
33864;SDS011;20159;51.072;13.526;2023-04-24T05:10:58;2.25;;;1.20;;
33864;SDS011;20159;51.072;13.526;2023-04-24T05:13:24;2.38;;;1.17;;
33864;SDS011;20159;51.072;13.526;2023-04-24T05:15:50;1.80;;;1.10;;
33864;SDS011;20159;51.072;13.526;2023-04-24T05:18:15;2.13;;;1.05;;
33864;SDS011;20159;51.072;13.526;2023-04-24T05:20:41;2.60;;;1.20;;
33864;SDS011;20159;51.072;13.526;2023-04-24T05:23:08;1.60;;;1.00;;
33864;SDS011;20159;51.072;13.526;2023-04-24T05:25:34;1.50;;;1.05;;
33864;SDS011;20159;51.072;13.526;2023-04-24T05:28:00;1.70;;;0.85;;
33864;SDS011;20159;51.072;13.526;2023-04-24T05:30:26;0.80;;;0.80;;
33864;SDS011;20159;51.072;13.526;2023-04-24T05:32:52;2.20;;;1.00;;
33864;SDS011;20159;51.072;13.526;2023-04-24T05:35:17;2.83;;;1.10;;
33864;SDS011;20159;51.072;13.526;2023-04-24T05:37:43;2.53;;;0.80;;
33864;SDS011;20159;51.072;13.526;2023-04-24T05:40:09;1.13;;;0.77;;
33864;SDS011;20159;51.072;13.526;2023-04-24T05:42:36;1.02;;;0.75;;
33864;SDS011;20159;51.072;13.526;2023-04-24T05:45:01;1.67;;;1.00;;
33864;SDS011;20159;51.072;13.526;2023-04-24T05:47:27;1.40;;;0.75;;
33864;SDS011;20159;51.072;13.526;2023-04-24T05:49:53;2.05;;;0.93;;
33864;SDS011;20159;51.072;13.526;2023-04-24T05:52:18;2.70;;;0.93;;
33864;SDS011;20159;51.072;13.526;2023-04-24T05:54:43;1.90;;;0.88;;
33864;SDS011;20159;51.072;13.526;2023-04-24T05:57:09;3.42;;;1.20;;
33864;SDS011;20159;51.072;13.526;2023-04-24T05:59:36;1.40;;;0.90;;
33864;SDS011;20159;51.072;13.526;2023-04-24T06:02:03;1.75;;;0.90;;
33864;SDS011;20159;51.072;13.526;2023-04-24T06:04:29;2.53;;;0.90;;
33864;SDS011;20159;51.072;13.526;2023-04-24T06:06:54;2.47;;;1.10;;
33864;SDS011;20159;51.072;13.526;2023-04-24T06:09:24;1.52;;;1.10;;
33864;SDS011;20159;51.072;13.526;2023-04-24T06:11:50;2.83;;;0.85;;
33864;SDS011;20159;51.072;13.526;2023-04-24T06:14:18;1.98;;;1.25;;
33864;SDS011;20159;51.072;13.526;2023-04-24T06:16:44;3.47;;;1.00;;
33864;SDS011;20159;51.072;13.526;2023-04-24T06:19:09;1.35;;;0.77;;
33864;SDS011;20159;51.072;13.526;2023-04-24T06:21:35;1.48;;;0.85;;
33864;SDS011;20159;51.072;13.526;2023-04-24T06:24:00;1.95;;;1.00;;
33864;SDS011;20159;51.072;13.526;2023-04-24T06:26:26;3.35;;;0.90;;
33864;SDS011;20159;51.072;13.526;2023-04-24T06:28:52;1.88;;;1.05;;
33864;SDS011;20159;51.072;13.526;2023-04-24T06:31:21;1.60;;;1.05;;
33864;SDS011;20159;51.072;13.526;2023-04-24T06:33:47;2.40;;;1.20;;
33864;SDS011;20159;51.072;13.526;2023-04-24T06:36:13;1.50;;;1.00;;
33864;SDS011;20159;51.072;13.526;2023-04-24T06:38:39;1.88;;;1.00;;
33864;SDS011;20159;51.072;13.526;2023-04-24T06:41:04;2.83;;;1.42;;
33864;SDS011;20159;51.072;13.526;2023-04-24T06:43:30;3.15;;;1.17;;
33864;SDS011;20159;51.072;13.526;2023-04-24T06:45:57;2.30;;;1.25;;
33864;SDS011;20159;51.072;13.526;2023-04-24T06:48:23;2.17;;;1.10;;
33864;SDS011;20159;51.072;13.526;2023-04-24T06:50:50;2.25;;;0.90;;
33864;SDS011;20159;51.072;13.526;2023-04-24T06:53:15;2.40;;;1.17;;
33864;SDS011;20159;51.072;13.526;2023-04-24T06:55:41;6.18;;;1.13;;
33864;SDS011;20159;51.072;13.526;2023-04-24T06:58:08;2.05;;;1.10;;
33864;SDS011;20159;51.072;13.526;2023-04-24T07:00:33;2.03;;;0.95;;
33864;SDS011;20159;51.072;13.526;2023-04-24T07:02:59;1.92;;;0.90;;
33864;SDS011;20159;51.072;13.526;2023-04-24T07:05:25;4.35;;;1.00;;
33864;SDS011;20159;51.072;13.526;2023-04-24T07:07:50;1.20;;;0.82;;
33864;SDS011;20159;51.072;13.526;2023-04-24T07:10:16;1.27;;;0.90;;
33864;SDS011;20159;51.072;13.526;2023-04-24T07:12:43;1.95;;;1.05;;
33864;SDS011;20159;51.072;13.526;2023-04-24T07:15:08;2.33;;;0.90;;
33864;SDS011;20159;51.072;13.526;2023-04-24T07:17:34;4.25;;;1.20;;
33864;SDS011;20159;51.072;13.526;2023-04-24T07:20:00;4.20;;;1.13;;
33864;SDS011;20159;51.072;13.526;2023-04-24T07:22:25;1.55;;;0.85;;
33864;SDS011;20159;51.072;13.526;2023-04-24T07:24:51;2.50;;;0.73;;
33864;SDS011;20159;51.072;13.526;2023-04-24T07:27:17;1.42;;;0.80;;
33864;SDS011;20159;51.072;13.526;2023-04-24T07:29:42;4.40;;;0.75;;
33864;SDS011;20159;51.072;13.526;2023-04-24T07:32:08;1.20;;;0.82;;
33864;SDS011;20159;51.072;13.526;2023-04-24T07:34:34;1.52;;;0.85;;
33864;SDS011;20159;51.072;13.526;2023-04-24T07:37:00;1.52;;;0.90;;
33864;SDS011;20159;51.072;13.526;2023-04-24T07:39:25;2.42;;;0.75;;
33864;SDS011;20159;51.072;13.526;2023-04-24T07:41:52;1.85;;;0.70;;
33864;SDS011;20159;51.072;13.526;2023-04-24T07:44:20;2.10;;;0.88;;
33864;SDS011;20159;51.072;13.526;2023-04-24T07:46:46;1.33;;;0.85;;
33864;SDS011;20159;51.072;13.526;2023-04-24T07:49:12;2.58;;;0.88;;
33864;SDS011;20159;51.072;13.526;2023-04-24T07:51:37;1.60;;;0.77;;
33864;SDS011;20159;51.072;13.526;2023-04-24T07:54:04;1.92;;;0.85;;
33864;SDS011;20159;51.072;13.526;2023-04-24T07:56:33;2.70;;;0.57;;
33864;SDS011;20159;51.072;13.526;2023-04-24T07:58:59;2.42;;;0.80;;
33864;SDS011;20159;51.072;13.526;2023-04-24T08:01:26;1.33;;;0.80;;
33864;SDS011;20159;51.072;13.526;2023-04-24T08:03:51;1.40;;;0.70;;
33864;SDS011;20159;51.072;13.526;2023-04-24T08:06:17;1.40;;;0.60;;
33864;SDS011;20159;51.072;13.526;2023-04-24T08:08:42;1.17;;;0.60;;
33864;SDS011;20159;51.072;13.526;2023-04-24T08:11:08;2.47;;;0.90;;
33864;SDS011;20159;51.072;13.526;2023-04-24T08:13:34;1.30;;;0.70;;
33864;SDS011;20159;51.072;13.526;2023-04-24T08:15:59;1.55;;;0.60;;
33864;SDS011;20159;51.072;13.526;2023-04-24T08:18:25;2.95;;;0.98;;
33864;SDS011;20159;51.072;13.526;2023-04-24T08:20:51;0.98;;;0.60;;
33864;SDS011;20159;51.072;13.526;2023-04-24T08:23:16;1.52;;;0.70;;
33864;SDS011;20159;51.072;13.526;2023-04-24T08:25:42;1.83;;;0.60;;
33864;SDS011;20159;51.072;13.526;2023-04-24T08:28:08;1.85;;;0.60;;
33864;SDS011;20159;51.072;13.526;2023-04-24T08:30:34;1.63;;;0.60;;
33864;SDS011;20159;51.072;13.526;2023-04-24T08:32:59;2.88;;;1.83;;
33864;SDS011;20159;51.072;13.526;2023-04-24T08:35:25;2.55;;;1.30;;
33864;SDS011;20159;51.072;13.526;2023-04-24T08:37:51;1.63;;;0.80;;
33864;SDS011;20159;51.072;13.526;2023-04-24T08:40:18;2.40;;;1.45;;
33864;SDS011;20159;51.072;13.526;2023-04-24T08:42:53;2.25;;;1.08;;
33864;SDS011;20159;51.072;13.526;2023-04-24T08:45:21;1.55;;;1.05;;
33864;SDS011;20159;51.072;13.526;2023-04-24T08:47:47;1.88;;;1.27;;
33864;SDS011;20159;51.072;13.526;2023-04-24T08:50:14;2.45;;;1.10;;
33864;SDS011;20159;51.072;13.526;2023-04-24T08:52:40;1.67;;;0.80;;
33864;SDS011;20159;51.072;13.526;2023-04-24T08:55:07;2.03;;;0.70;;
33864;SDS011;20159;51.072;13.526;2023-04-24T08:57:32;1.15;;;0.77;;
33864;SDS011;20159;51.072;13.526;2023-04-24T08:59:58;1.17;;;0.75;;
33864;SDS011;20159;51.072;13.526;2023-04-24T09:02:25;1.33;;;0.80;;
33864;SDS011;20159;51.072;13.526;2023-04-24T09:04:51;2.28;;;0.75;;
33864;SDS011;20159;51.072;13.526;2023-04-24T09:07:17;2.15;;;0.60;;
33864;SDS011;20159;51.072;13.526;2023-04-24T09:09:44;1.75;;;0.95;;
33864;SDS011;20159;51.072;13.526;2023-04-24T09:12:10;2.65;;;1.58;;
33864;SDS011;20159;51.072;13.526;2023-04-24T09:14:37;2.08;;;1.30;;
33864;SDS011;20159;51.072;13.526;2023-04-24T09:17:07;1.60;;;1.13;;
33864;SDS011;20159;51.072;13.526;2023-04-24T09:19:32;2.92;;;1.10;;
33864;SDS011;20159;51.072;13.526;2023-04-24T09:21:58;1.27;;;0.80;;
33864;SDS011;20159;51.072;13.526;2023-04-24T09:24:23;3.28;;;0.98;;
33864;SDS011;20159;51.072;13.526;2023-04-24T09:26:55;1.17;;;0.77;;
33864;SDS011;20159;51.072;13.526;2023-04-24T09:29:23;1.73;;;0.82;;
33864;SDS011;20159;51.072;13.526;2023-04-24T09:31:49;2.72;;;0.90;;
33864;SDS011;20159;51.072;13.526;2023-04-24T09:34:19;3.55;;;1.00;;
33864;SDS011;20159;51.072;13.526;2023-04-24T09:36:50;0.90;;;0.57;;
33864;SDS011;20159;51.072;13.526;2023-04-24T09:39:16;0.88;;;0.52;;
33864;SDS011;20159;51.072;13.526;2023-04-24T09:44:18;1.75;;;0.80;;
33864;SDS011;20159;51.072;13.526;2023-04-24T09:46:52;3.47;;;1.00;;
33864;SDS011;20159;51.072;13.526;2023-04-24T09:49:25;0.93;;;0.50;;
33864;SDS011;20159;51.072;13.526;2023-04-24T09:51:52;2.45;;;0.68;;
33864;SDS011;20159;51.072;13.526;2023-04-24T09:54:30;1.55;;;0.70;;
33864;SDS011;20159;51.072;13.526;2023-04-24T09:56:56;1.73;;;0.63;;
33864;SDS011;20159;51.072;13.526;2023-04-24T09:59:22;0.77;;;0.50;;
33864;SDS011;20159;51.072;13.526;2023-04-24T10:01:48;2.05;;;0.63;;
33864;SDS011;20159;51.072;13.526;2023-04-24T10:06:50;1.10;;;0.50;;
33864;SDS011;20159;51.072;13.526;2023-04-24T10:09:17;0.75;;;0.45;;
33864;SDS011;20159;51.072;13.526;2023-04-24T10:11:47;1.80;;;0.68;;
33864;SDS011;20159;51.072;13.526;2023-04-24T10:14:18;1.30;;;0.68;;
33864;SDS011;20159;51.072;13.526;2023-04-24T10:16:46;2.20;;;0.70;;
33864;SDS011;20159;51.072;13.526;2023-04-24T10:19:13;0.95;;;0.60;;
33864;SDS011;20159;51.072;13.526;2023-04-24T10:21:40;1.38;;;0.52;;
33864;SDS011;20159;51.072;13.526;2023-04-24T10:24:07;1.08;;;0.50;;
33864;SDS011;20159;51.072;13.526;2023-04-24T10:26:34;2.25;;;0.60;;
33864;SDS011;20159;51.072;13.526;2023-04-24T10:29:00;0.98;;;0.52;;
33864;SDS011;20159;51.072;13.526;2023-04-24T10:31:26;1.50;;;0.70;;
33864;SDS011;20159;51.072;13.526;2023-04-24T10:33:55;1.02;;;0.50;;
33864;SDS011;20159;51.072;13.526;2023-04-24T10:36:23;2.28;;;0.63;;
33864;SDS011;20159;51.072;13.526;2023-04-24T10:38:51;0.90;;;0.52;;
33864;SDS011;20159;51.072;13.526;2023-04-24T10:41:20;1.00;;;0.50;;
33864;SDS011;20159;51.072;13.526;2023-04-24T10:46:36;2.15;;;0.80;;
33864;SDS011;20159;51.072;13.526;2023-04-24T10:49:06;2.42;;;0.65;;
33864;SDS011;20159;51.072;13.526;2023-04-24T10:54:36;1.95;;;0.57;;
33864;SDS011;20159;51.072;13.526;2023-04-24T10:59:46;1.30;;;1.00;;
33864;SDS011;20159;51.072;13.526;2023-04-24T11:02:15;1.83;;;0.88;;
33864;SDS011;20159;51.072;13.526;2023-04-24T11:04:42;1.65;;;1.55;;
33864;SDS011;20159;51.072;13.526;2023-04-24T11:07:11;2.65;;;1.08;;
33864;SDS011;20159;51.072;13.526;2023-04-24T11:09:37;0.88;;;0.60;;
33864;SDS011;20159;51.072;13.526;2023-04-24T11:12:08;1.15;;;0.50;;
33864;SDS011;20159;51.072;13.526;2023-04-24T11:17:42;2.35;;;0.93;;
33864;SDS011;20159;51.072;13.526;2023-04-24T11:20:08;1.58;;;0.73;;
33864;SDS011;20159;51.072;13.526;2023-04-24T11:22:36;1.60;;;0.77;;
33864;SDS011;20159;51.072;13.526;2023-04-24T11:25:04;2.22;;;0.80;;
33864;SDS011;20159;51.072;13.526;2023-04-24T11:27:32;1.08;;;0.60;;
33864;SDS011;20159;51.072;13.526;2023-04-24T11:30:03;1.27;;;0.60;;
33864;SDS011;20159;51.072;13.526;2023-04-24T11:32:33;1.20;;;0.70;;
33864;SDS011;20159;51.072;13.526;2023-04-24T11:35:08;1.80;;;0.60;;
33864;SDS011;20159;51.072;13.526;2023-04-24T11:37:39;0.77;;;0.70;;
33864;SDS011;20159;51.072;13.526;2023-04-24T11:40:06;1.20;;;0.77;;
33864;SDS011;20159;51.072;13.526;2023-04-24T11:42:34;1.02;;;0.60;;
33864;SDS011;20159;51.072;13.526;2023-04-24T11:45:00;1.10;;;0.70;;
33864;SDS011;20159;51.072;13.526;2023-04-24T11:47:27;2.40;;;0.50;;
33864;SDS011;20159;51.072;13.526;2023-04-24T11:49:58;1.13;;;0.63;;
33864;SDS011;20159;51.072;13.526;2023-04-24T11:52:24;3.30;;;0.60;;
33864;SDS011;20159;51.072;13.526;2023-04-24T11:54:49;0.85;;;0.50;;
33864;SDS011;20159;51.072;13.526;2023-04-24T11:57:15;1.10;;;0.50;;
33864;SDS011;20159;51.072;13.526;2023-04-24T11:59:41;1.05;;;0.55;;
33864;SDS011;20159;51.072;13.526;2023-04-24T12:02:07;1.65;;;0.70;;
33864;SDS011;20159;51.072;13.526;2023-04-24T12:04:39;0.80;;;0.60;;
33864;SDS011;20159;51.072;13.526;2023-04-24T12:07:05;0.93;;;0.50;;
33864;SDS011;20159;51.072;13.526;2023-04-24T12:09:46;1.20;;;0.70;;
33864;SDS011;20159;51.072;13.526;2023-04-24T12:12:13;1.23;;;0.70;;
33864;SDS011;20159;51.072;13.526;2023-04-24T12:14:43;0.63;;;0.55;;
33864;SDS011;20159;51.072;13.526;2023-04-24T12:17:13;1.75;;;0.60;;
33864;SDS011;20159;51.072;13.526;2023-04-24T12:19:44;1.73;;;0.52;;
33864;SDS011;20159;51.072;13.526;2023-04-24T12:22:11;0.98;;;0.47;;
33864;SDS011;20159;51.072;13.526;2023-04-24T12:24:54;0.95;;;0.50;;
33864;SDS011;20159;51.072;13.526;2023-04-24T12:27:21;6.38;;;4.57;;
33864;SDS011;20159;51.072;13.526;2023-04-24T12:29:55;2.03;;;1.20;;
33864;SDS011;20159;51.072;13.526;2023-04-24T12:32:21;1.75;;;0.65;;
33864;SDS011;20159;51.072;13.526;2023-04-24T12:34:47;1.40;;;0.68;;
33864;SDS011;20159;51.072;13.526;2023-04-24T12:37:14;1.52;;;0.60;;
33864;SDS011;20159;51.072;13.526;2023-04-24T12:39:39;1.02;;;0.60;;
33864;SDS011;20159;51.072;13.526;2023-04-24T12:42:30;0.77;;;0.50;;
33864;SDS011;20159;51.072;13.526;2023-04-24T12:44:57;0.80;;;0.50;;
33864;SDS011;20159;51.072;13.526;2023-04-24T12:47:24;1.55;;;0.70;;
33864;SDS011;20159;51.072;13.526;2023-04-24T12:49:50;0.85;;;0.55;;
33864;SDS011;20159;51.072;13.526;2023-04-24T12:52:17;1.38;;;0.70;;
33864;SDS011;20159;51.072;13.526;2023-04-24T12:54:46;1.02;;;0.63;;
33864;SDS011;20159;51.072;13.526;2023-04-24T12:57:12;1.17;;;0.60;;
33864;SDS011;20159;51.072;13.526;2023-04-24T12:59:37;1.45;;;0.60;;
33864;SDS011;20159;51.072;13.526;2023-04-24T13:02:04;0.93;;;0.73;;
33864;SDS011;20159;51.072;13.526;2023-04-24T13:04:30;1.23;;;0.80;;
33864;SDS011;20159;51.072;13.526;2023-04-24T13:06:55;1.00;;;0.60;;
33864;SDS011;20159;51.072;13.526;2023-04-24T13:09:21;1.70;;;0.80;;
33864;SDS011;20159;51.072;13.526;2023-04-24T13:11:46;1.20;;;0.70;;
33864;SDS011;20159;51.072;13.526;2023-04-24T13:14:12;2.53;;;0.95;;
33864;SDS011;20159;51.072;13.526;2023-04-24T13:16:37;1.08;;;0.60;;
33864;SDS011;20159;51.072;13.526;2023-04-24T13:19:03;1.30;;;0.70;;
33864;SDS011;20159;51.072;13.526;2023-04-24T13:21:29;1.73;;;0.50;;
33864;SDS011;20159;51.072;13.526;2023-04-24T13:23:55;3.47;;;0.60;;
33864;SDS011;20159;51.072;13.526;2023-04-24T13:26:21;1.83;;;0.50;;
33864;SDS011;20159;51.072;13.526;2023-04-24T13:28:46;1.55;;;0.60;;
33864;SDS011;20159;51.072;13.526;2023-04-24T13:31:12;1.10;;;0.60;;
33864;SDS011;20159;51.072;13.526;2023-04-24T13:33:38;1.13;;;0.65;;
33864;SDS011;20159;51.072;13.526;2023-04-24T13:36:04;1.20;;;0.50;;
33864;SDS011;20159;51.072;13.526;2023-04-24T13:38:30;1.20;;;0.60;;
33864;SDS011;20159;51.072;13.526;2023-04-24T13:40:56;2.15;;;0.50;;
33864;SDS011;20159;51.072;13.526;2023-04-24T13:43:21;0.75;;;0.40;;
33864;SDS011;20159;51.072;13.526;2023-04-24T13:45:47;1.85;;;0.63;;
33864;SDS011;20159;51.072;13.526;2023-04-24T13:48:13;1.00;;;0.60;;
33864;SDS011;20159;51.072;13.526;2023-04-24T13:50:40;1.05;;;0.60;;
33864;SDS011;20159;51.072;13.526;2023-04-24T13:53:06;0.93;;;0.60;;
33864;SDS011;20159;51.072;13.526;2023-04-24T13:55:32;2.90;;;0.68;;
33864;SDS011;20159;51.072;13.526;2023-04-24T13:57:57;0.88;;;0.60;;
33864;SDS011;20159;51.072;13.526;2023-04-24T14:00:23;1.30;;;0.60;;
33864;SDS011;20159;51.072;13.526;2023-04-24T14:02:48;1.00;;;0.70;;
33864;SDS011;20159;51.072;13.526;2023-04-24T14:05:14;2.15;;;0.50;;
33864;SDS011;20159;51.072;13.526;2023-04-24T14:07:43;0.90;;;0.60;;
33864;SDS011;20159;51.072;13.526;2023-04-24T14:10:08;0.80;;;0.50;;
33864;SDS011;20159;51.072;13.526;2023-04-24T14:12:34;2.40;;;0.70;;
33864;SDS011;20159;51.072;13.526;2023-04-24T14:15:00;0.90;;;0.55;;
33864;SDS011;20159;51.072;13.526;2023-04-24T14:17:26;1.15;;;0.60;;
33864;SDS011;20159;51.072;13.526;2023-04-24T14:19:52;3.08;;;0.98;;
33864;SDS011;20159;51.072;13.526;2023-04-24T14:22:21;0.77;;;0.50;;
33864;SDS011;20159;51.072;13.526;2023-04-24T14:24:46;0.70;;;0.60;;
33864;SDS011;20159;51.072;13.526;2023-04-24T14:27:12;0.93;;;0.68;;
33864;SDS011;20159;51.072;13.526;2023-04-24T14:29:37;0.98;;;0.63;;
33864;SDS011;20159;51.072;13.526;2023-04-24T14:32:03;0.93;;;0.63;;
33864;SDS011;20159;51.072;13.526;2023-04-24T14:34:28;2.60;;;0.70;;
33864;SDS011;20159;51.072;13.526;2023-04-24T14:36:54;1.10;;;0.70;;
33864;SDS011;20159;51.072;13.526;2023-04-24T14:39:19;1.80;;;0.70;;
33864;SDS011;20159;51.072;13.526;2023-04-24T14:41:45;1.83;;;0.80;;
33864;SDS011;20159;51.072;13.526;2023-04-24T14:44:11;0.75;;;0.57;;
33864;SDS011;20159;51.072;13.526;2023-04-24T14:46:36;3.22;;;0.80;;